Time;durP1;ratioP1;P1;durP2;ratioP2;P2;SDS_P1;SDS_P2;PMS_P1;PMS_P2;Temp;Humidity;BMP_temperature;BMP_pressure;BME280_temperature;BME280_humidity;BME280_pressure;Samples;Min_cycle;Max_cycle;Signal;HPM_P1;HPM_P2
2023/08/17 00:00:14;;;;;;;45.88;42.08;;;17.60;99.90;;;;;;5048478;28;20136;-60
2023/08/17 00:02:41;;;;;;;45.78;41.63;;;17.70;99.90;;;;;;5050430;28;20037;-60
2023/08/17 00:05:07;;;;;;;45.35;41.35;;;17.70;99.90;;;;;;5048297;28;20041;-62
2023/08/17 00:07:33;;;;;;;44.92;40.88;;;17.40;99.90;;;;;;5048539;28;20102;-61
2023/08/17 00:09:58;;;;;;;44.78;41.00;;;17.30;99.90;;;;;;5052523;28;20449;-62
2023/08/17 00:12:24;;;;;;;46.35;41.83;;;17.60;99.90;;;;;;5047892;28;20085;-61
2023/08/17 00:14:51;;;;;;;48.50;44.30;;;17.30;99.90;;;;;;5051274;28;20048;-60
2023/08/17 00:17:17;;;;;;;48.17;44.10;;;17.40;99.90;;;;;;5055325;28;20471;-61
2023/08/17 00:19:42;;;;;;;45.58;41.60;;;17.40;99.90;;;;;;5049785;28;20116;-61
2023/08/17 00:22:08;;;;;;;44.67;40.78;;;17.10;99.90;;;;;;5041403;28;20041;-62
2023/08/17 00:24:33;;;;;;;46.13;41.95;;;17.10;99.90;;;;;;5049840;28;20044;-61
2023/08/17 00:26:59;;;;;;;45.88;42.08;;;17.30;99.90;;;;;;5048502;28;20565;-61
2023/08/17 00:29:25;;;;;;;45.80;41.92;;;17.30;99.90;;;;;;5046747;28;20198;-61
2023/08/17 00:31:52;;;;;;;44.65;40.88;;;17.40;99.90;;;;;;5047466;28;20089;-61
2023/08/17 00:34:18;;;;;;;46.55;42.38;;;17.00;99.90;;;;;;5039672;28;20051;-61
2023/08/17 00:36:43;;;;;;;46.80;42.90;;;17.20;99.90;;;;;;5049773;28;20045;-61
2023/08/17 00:39:09;;;;;;;45.92;41.92;;;17.20;99.90;;;;;;5045858;28;20052;-63
2023/08/17 00:41:34;;;;;;;46.47;42.72;;;17.20;99.90;;;;;;5048376;28;20041;-61
2023/08/17 00:44:00;;;;;;;44.58;40.78;;;17.20;99.90;;;;;;5048119;28;20402;-61
2023/08/17 00:46:27;;;;;;;45.78;41.63;;;17.10;99.90;;;;;;5047735;28;20060;-61
2023/08/17 00:48:54;;;;;;;46.17;42.30;;;17.20;99.90;;;;;;5038081;28;20045;-60
2023/08/17 00:51:24;;;;;;;46.92;42.83;;;16.90;99.90;;;;;;5042785;28;20033;-60
2023/08/17 00:53:56;;;;;;;45.33;41.58;;;17.00;99.90;;;;;;5041532;28;20116;-61
2023/08/17 00:56:21;;;;;;;47.10;42.92;;;16.90;99.90;;;;;;5047908;28;20116;-61
2023/08/17 00:58:49;;;;;;;47.28;43.08;;;16.90;99.90;;;;;;5035725;28;20479;-62
2023/08/17 01:01:14;;;;;;;47.72;43.50;;;16.90;99.90;;;;;;5047221;28;20108;-62
2023/08/17 01:03:41;;;;;;;46.47;42.65;;;17.10;99.90;;;;;;5060143;28;20036;-62
2023/08/17 01:06:07;;;;;;;45.72;41.53;;;17.00;99.90;;;;;;5056345;28;20071;-62
2023/08/17 01:08:33;;;;;;;44.97;40.85;;;17.10;99.90;;;;;;5048784;28;20061;-61
2023/08/17 01:11:11;;;;;;;45.55;41.47;;;17.00;99.90;;;;;;5044631;28;20056;-62
2023/08/17 01:13:50;;;;;;;46.03;42.28;;;16.80;99.90;;;;;;5047564;28;20045;-62
2023/08/17 01:16:24;;;;;;;46.75;42.75;;;17.00;99.90;;;;;;5049284;28;20044;-62
2023/08/17 01:18:51;;;;;;;47.95;43.85;;;16.70;99.90;;;;;;5050516;28;20044;-62
2023/08/17 01:21:20;;;;;;;46.78;42.58;;;16.70;99.90;;;;;;5042238;28;20041;-62
2023/08/17 01:23:48;;;;;;;46.28;42.30;;;16.90;99.90;;;;;;5034393;28;20048;-63
2023/08/17 01:26:15;;;;;;;45.35;41.55;;;17.00;99.90;;;;;;5038664;28;20049;-62
2023/08/17 01:28:46;;;;;;;44.75;41.15;;;16.80;99.90;;;;;;5048115;28;20086;-62
2023/08/17 01:31:19;;;;;;;44.90;41.10;;;17.00;99.90;;;;;;5049627;28;20036;-62
2023/08/17 01:33:51;;;;;;;46.25;42.33;;;17.00;99.90;;;;;;5048694;28;20414;-62
2023/08/17 01:36:39;;;;;;;41.97;37.95;;;16.70;99.90;;;;;;5044898;28;20037;-62
2023/08/17 01:39:07;;;;;;;44.55;40.75;;;16.90;99.90;;;;;;5051422;28;20507;-61
2023/08/17 01:41:33;;;;;;;44.80;40.78;;;17.40;99.90;;;;;;5055607;28;20479;-62
2023/08/17 01:44:00;;;;;;;44.95;41.22;;;16.70;99.90;;;;;;5052682;28;20041;-62
2023/08/17 01:46:30;;;;;;;45.03;40.95;;;16.80;99.90;;;;;;5049653;28;20047;-61
2023/08/17 01:48:56;;;;;;;42.88;39.05;;;16.70;99.90;;;;;;5052030;28;20090;-62
2023/08/17 01:51:21;;;;;;;43.13;39.20;;;17.00;99.90;;;;;;5051075;28;20519;-61
2023/08/17 01:53:47;;;;;;;42.90;39.25;;;16.70;99.90;;;;;;5052685;28;20045;-62
2023/08/17 01:56:13;;;;;;;43.00;38.95;;;16.70;99.90;;;;;;5050339;28;20175;-61
2023/08/17 01:58:38;;;;;;;43.67;39.97;;;16.80;99.90;;;;;;5052048;28;20510;-62
2023/08/17 02:01:04;;;;;;;43.67;39.78;;;16.70;99.90;;;;;;5045446;28;20052;-62
2023/08/17 02:03:30;;;;;;;45.75;41.85;;;16.60;99.90;;;;;;5048394;28;20087;-62
2023/08/17 02:05:59;;;;;;;45.80;42.10;;;16.80;99.90;;;;;;5052183;28;20037;-62
2023/08/17 02:08:25;;;;;;;44.47;40.85;;;16.90;99.90;;;;;;5051835;28;20029;-62
2023/08/17 02:10:51;;;;;;;45.08;41.33;;;16.80;99.90;;;;;;5052136;28;20040;-62
2023/08/17 02:13:16;;;;;;;43.97;40.13;;;16.60;99.90;;;;;;5042789;28;20033;-62
2023/08/17 02:15:42;;;;;;;44.33;40.15;;;16.80;99.90;;;;;;5047612;28;20238;-62
2023/08/17 02:18:08;;;;;;;44.08;40.33;;;16.50;99.90;;;;;;5050237;28;20102;-62
2023/08/17 02:20:33;;;;;;;45.17;41.20;;;16.80;99.90;;;;;;5049019;28;20053;-62
2023/08/17 02:22:59;;;;;;;42.90;39.20;;;16.50;99.90;;;;;;5050943;28;20094;-62
2023/08/17 02:25:25;;;;;;;43.83;39.92;;;16.60;99.90;;;;;;5050032;28;20056;-62
2023/08/17 02:27:50;;;;;;;44.72;40.60;;;16.60;99.90;;;;;;5047892;28;20033;-62
2023/08/17 02:30:16;;;;;;;42.55;39.13;;;16.60;99.90;;;;;;5050135;28;20457;-62
2023/08/17 02:32:41;;;;;;;44.50;40.50;;;16.70;99.90;;;;;;5046834;28;20389;-62
2023/08/17 02:35:07;;;;;;;44.95;41.05;;;16.40;99.90;;;;;;5047586;28;20043;-62
2023/08/17 02:37:33;;;;;;;46.80;42.72;;;16.20;99.90;;;;;;5047863;28;20048;-62
2023/08/17 02:39:59;;;;;;;44.25;40.35;;;16.30;99.90;;;;;;5050790;28;20063;-62
2023/08/17 02:42:24;;;;;;;49.67;44.97;;;16.30;99.90;;;;;;5051148;28;20082;-62
2023/08/17 02:44:50;;;;;;;48.35;43.88;;;16.20;99.90;;;;;;5051081;28;20037;-62
2023/08/17 02:47:15;;;;;;;48.20;43.78;;;16.40;99.90;;;;;;5051476;28;20040;-63
2023/08/17 02:49:41;;;;;;;49.25;44.85;;;16.30;99.90;;;;;;5050236;28;20042;-62
2023/08/17 02:52:06;;;;;;;47.25;42.88;;;16.20;99.90;;;;;;5054898;28;20036;-62
2023/08/17 02:54:32;;;;;;;48.13;43.83;;;16.40;99.90;;;;;;5052789;28;20035;-62
2023/08/17 02:56:58;;;;;;;47.00;42.90;;;16.60;99.90;;;;;;5051389;28;20041;-62
2023/08/17 02:59:24;;;;;;;45.92;41.70;;;16.80;99.90;;;;;;5050607;28;20099;-63
2023/08/17 03:01:50;;;;;;;44.05;39.67;;;16.80;99.90;;;;;;5046791;28;20080;-62
2023/08/17 03:04:15;;;;;;;44.63;40.53;;;16.80;99.90;;;;;;5039576;28;20410;-62
2023/08/17 03:06:41;;;;;;;45.88;41.53;;;16.40;99.90;;;;;;5050183;28;20040;-62
2023/08/17 03:09:06;;;;;;;47.22;42.92;;;16.70;99.90;;;;;;5052056;28;20090;-62
2023/08/17 03:11:32;;;;;;;46.45;42.22;;;16.40;99.90;;;;;;5048092;28;20398;-62
2023/08/17 03:14:00;;;;;;;46.53;42.65;;;16.50;99.90;;;;;;5048153;28;20868;-63
2023/08/17 03:16:32;;;;;;;45.10;41.05;;;16.80;99.90;;;;;;5053166;28;20520;-63
2023/08/17 03:18:58;;;;;;;47.03;42.38;;;16.40;99.90;;;;;;5044022;28;20142;-62
2023/08/17 03:21:23;;;;;;;49.75;43.60;;;16.80;99.90;;;;;;5049259;28;20048;-62
2023/08/17 03:23:49;;;;;;;46.50;42.50;;;16.50;99.90;;;;;;5052701;28;20033;-62
2023/08/17 03:26:15;;;;;;;45.92;41.83;;;16.80;99.90;;;;;;5050643;28;20091;-62
2023/08/17 03:28:41;;;;;;;45.92;41.92;;;16.60;99.90;;;;;;5048385;28;20605;-62
2023/08/17 03:31:10;;;;;;;45.15;40.92;;;16.70;99.90;;;;;;5044708;28;20041;-62
2023/08/17 03:33:36;;;;;;;45.17;41.00;;;16.60;99.90;;;;;;5046648;28;20083;-62
2023/08/17 03:36:02;;;;;;;46.40;42.03;;;16.40;99.90;;;;;;5050161;28;20142;-62
2023/08/17 03:38:28;;;;;;;44.53;40.63;;;16.40;99.90;;;;;;5050706;28;20383;-62
2023/08/17 03:40:54;;;;;;;46.25;42.15;;;16.50;99.90;;;;;;5040889;28;20056;-62
2023/08/17 03:43:19;;;;;;;46.38;42.47;;;16.50;99.90;;;;;;5045775;28;20045;-62
2023/08/17 03:45:45;;;;;;;45.17;41.20;;;16.50;99.90;;;;;;5062752;28;20032;-63
2023/08/17 03:48:11;;;;;;;48.30;43.95;;;16.40;99.90;;;;;;5048515;28;20816;-62
2023/08/17 03:50:36;;;;;;;45.97;41.60;;;16.50;99.90;;;;;;5047459;28;20060;-62
2023/08/17 03:53:02;;;;;;;46.47;42.08;;;16.50;99.90;;;;;;5052373;28;20041;-62
2023/08/17 03:55:28;;;;;;;47.35;43.30;;;16.90;99.90;;;;;;5055970;28;20455;-62
2023/08/17 03:57:53;;;;;;;47.60;43.33;;;16.60;99.90;;;;;;5049816;28;20049;-62
2023/08/17 04:00:19;;;;;;;46.58;42.38;;;16.50;99.90;;;;;;5045747;28;20056;-63
2023/08/17 04:02:44;;;;;;;48.53;43.85;;;16.60;99.90;;;;;;5046802;28;20049;-62
2023/08/17 04:05:10;;;;;;;47.97;43.78;;;16.90;99.90;;;;;;5049747;28;20048;-63
2023/08/17 04:07:36;;;;;;;47.20;43.00;;;16.70;99.90;;;;;;5049984;28;20040;-62
2023/08/17 04:10:03;;;;;;;46.13;42.13;;;16.60;99.90;;;;;;5047169;28;20521;-62
2023/08/17 04:12:28;;;;;;;45.35;41.15;;;17.00;99.90;;;;;;5048010;28;20048;-62
2023/08/17 04:14:54;;;;;;;43.85;40.05;;;16.60;99.90;;;;;;5052738;28;20430;-62
2023/08/17 04:17:20;;;;;;;45.47;41.15;;;16.80;99.90;;;;;;5053611;28;20033;-62
2023/08/17 04:19:46;;;;;;;44.63;40.72;;;16.80;99.90;;;;;;5068561;28;20063;-62
2023/08/17 04:22:12;;;;;;;46.00;41.60;;;16.80;99.90;;;;;;5033500;28;20037;-62
2023/08/17 04:24:37;;;;;;;47.53;43.45;;;16.60;99.90;;;;;;5042047;28;20141;-62
2023/08/17 04:27:04;;;;;;;47.05;43.22;;;16.50;99.90;;;;;;5049031;28;20092;-64
2023/08/17 04:29:31;;;;;;;46.95;43.20;;;16.60;99.90;;;;;;5050521;28;20483;-64
2023/08/17 04:31:57;;;;;;;47.30;43.42;;;16.90;99.90;;;;;;5048781;28;20542;-64
2023/08/17 04:34:23;;;;;;;47.22;43.42;;;17.00;99.90;;;;;;5043386;28;20255;-64
2023/08/17 04:36:48;;;;;;;46.08;42.47;;;17.20;99.90;;;;;;5049950;28;20045;-64
2023/08/17 04:39:14;;;;;;;45.80;42.00;;;17.10;99.90;;;;;;5048377;28;20134;-63
2023/08/17 04:41:39;;;;;;;47.63;43.55;;;16.60;99.90;;;;;;5048178;28;20068;-64
2023/08/17 04:44:05;;;;;;;47.70;43.55;;;17.10;99.90;;;;;;5050987;28;20056;-63
2023/08/17 04:46:30;;;;;;;47.40;43.50;;;17.20;99.90;;;;;;5049388;28;20141;-63
2023/08/17 04:48:56;;;;;;;46.40;42.70;;;16.70;99.90;;;;;;5052245;28;20281;-63
2023/08/17 04:51:21;;;;;;;47.30;43.00;;;17.20;99.90;;;;;;5045756;28;20041;-64
2023/08/17 04:53:47;;;;;;;45.90;42.13;;;17.30;99.90;;;;;;5048372;28;20458;-64
2023/08/17 04:56:12;;;;;;;46.28;42.28;;;17.20;99.90;;;;;;5048587;28;20394;-64
2023/08/17 04:58:38;;;;;;;44.65;41.00;;;17.20;99.90;;;;;;5054601;28;20044;-64
2023/08/17 05:01:04;;;;;;;44.88;40.90;;;16.80;99.90;;;;;;5045385;28;20045;-64
2023/08/17 05:03:30;;;;;;;44.03;40.60;;;16.80;99.90;;;;;;5043462;28;20052;-64
2023/08/17 05:05:56;;;;;;;44.70;41.00;;;17.10;99.90;;;;;;5043000;28;20497;-63
2023/08/17 05:08:22;;;;;;;45.20;41.17;;;16.80;99.90;;;;;;5047999;28;20037;-64
2023/08/17 05:10:48;;;;;;;45.05;41.28;;;17.30;99.90;;;;;;5049632;28;20055;-64
2023/08/17 05:13:14;;;;;;;45.92;41.92;;;17.30;99.90;;;;;;5057432;28;20044;-63
2023/08/17 05:15:39;;;;;;;44.78;41.08;;;17.30;99.90;;;;;;5050562;28;20048;-64
2023/08/17 05:18:05;;;;;;;45.38;41.40;;;17.40;99.90;;;;;;5048990;28;20036;-63
2023/08/17 05:20:30;;;;;;;45.08;41.55;;;17.00;99.90;;;;;;5051297;28;20111;-63
2023/08/17 05:22:56;;;;;;;44.13;40.42;;;17.20;99.90;;;;;;5042418;28;20053;-64
2023/08/17 05:25:22;;;;;;;45.03;41.10;;;17.50;99.90;;;;;;5047666;28;20036;-64
2023/08/17 05:27:49;;;;;;;43.80;40.10;;;17.10;99.90;;;;;;5051385;28;20039;-64
2023/08/17 05:30:14;;;;;;;45.53;41.10;;;17.60;99.90;;;;;;5047876;28;20048;-64
2023/08/17 05:32:40;;;;;;;44.25;40.13;;;17.10;99.90;;;;;;5047596;28;20059;-64
2023/08/17 05:35:06;;;;;;;43.25;39.28;;;17.70;99.90;;;;;;5046772;28;20041;-64
2023/08/17 05:37:31;;;;;;;43.92;39.92;;;17.30;99.90;;;;;;5053144;28;20051;-64
2023/08/17 05:39:57;;;;;;;43.50;39.15;;;17.30;99.90;;;;;;5050237;28;20037;-64
2023/08/17 05:42:23;;;;;;;42.80;38.75;;;17.80;99.90;;;;;;5043627;28;20048;-64
2023/08/17 05:44:48;;;;;;;42.33;38.60;;;17.40;99.90;;;;;;5048982;28;20068;-64
2023/08/17 05:47:17;;;;;;;42.50;38.40;;;18.00;99.90;;;;;;5050342;28;20087;-64
2023/08/17 05:49:43;;;;;;;42.28;38.03;;;17.90;99.90;;;;;;5051875;28;20049;-64
2023/08/17 05:52:08;;;;;;;41.72;37.58;;;17.70;99.90;;;;;;5049880;28;20090;-64
2023/08/17 05:54:34;;;;;;;42.42;38.33;;;17.80;99.90;;;;;;5048871;28;20599;-63
2023/08/17 05:57:01;;;;;;;43.30;39.30;;;17.90;99.90;;;;;;5050559;28;20037;-64
2023/08/17 05:59:26;;;;;;;42.05;38.25;;;17.90;99.90;;;;;;5048410;28;20094;-63
2023/08/17 06:01:52;;;;;;;42.38;38.35;;;18.60;99.90;;;;;;5051013;28;20505;-64
2023/08/17 06:04:18;;;;;;;40.75;37.05;;;18.10;99.90;;;;;;5051282;28;20036;-65
2023/08/17 06:06:43;;;;;;;43.70;39.75;;;18.50;99.90;;;;;;5051766;28;20048;-65
2023/08/17 06:09:09;;;;;;;39.60;36.05;;;18.60;99.90;;;;;;5048386;28;20487;-65
2023/08/17 06:11:34;;;;;;;37.35;33.97;;;18.60;99.90;;;;;;5047432;28;20037;-65
2023/08/17 06:14:00;;;;;;;36.05;32.88;;;18.40;99.90;;;;;;5047991;28;20091;-66
2023/08/17 06:16:26;;;;;;;37.38;33.92;;;18.70;99.90;;;;;;5044120;28;20479;-66
2023/08/17 06:18:51;;;;;;;37.40;34.10;;;18.50;99.90;;;;;;5044109;28;20565;-66
2023/08/17 06:21:17;;;;;;;33.15;30.38;;;18.70;99.90;;;;;;5049817;28;20379;-67
2023/08/17 06:23:42;;;;;;;32.60;29.90;;;18.70;99.90;;;;;;5048911;28;20060;-64
2023/08/17 06:26:08;;;;;;;32.63;29.83;;;19.00;99.90;;;;;;5044996;28;20124;-65
2023/08/17 06:28:34;;;;;;;29.52;26.88;;;18.90;99.90;;;;;;5047155;28;20095;-64
2023/08/17 06:30:59;;;;;;;29.80;27.27;;;18.90;99.90;;;;;;5047896;28;20040;-65
2023/08/17 06:33:25;;;;;;;32.00;29.08;;;19.20;99.90;;;;;;5048849;28;20458;-65
2023/08/17 06:35:51;;;;;;;33.75;30.55;;;19.20;99.90;;;;;;5049848;28;20471;-65
2023/08/17 06:38:17;;;;;;;32.95;30.05;;;19.20;99.90;;;;;;5046848;28;20485;-65
2023/08/17 06:40:42;;;;;;;32.17;29.38;;;19.20;99.90;;;;;;5042441;28;20483;-64
2023/08/17 06:43:09;;;;;;;31.25;28.55;;;19.40;99.90;;;;;;5050692;28;20043;-65
2023/08/17 06:45:34;;;;;;;29.35;26.70;;;19.20;99.90;;;;;;5043940;28;20041;-64
2023/08/17 06:48:00;;;;;;;31.73;28.67;;;19.30;99.90;;;;;;5044569;28;20094;-62
2023/08/17 06:50:27;;;;;;;26.95;24.80;;;19.30;24.30;;;;;;5049417;28;20131;-64
2023/08/17 06:52:52;;;;;;;29.10;26.60;;;19.60;99.90;;;;;;5049374;28;20036;-63
2023/08/17 06:55:18;;;;;;;25.23;23.20;;;19.50;1.00;;;;;;5039522;28;20048;-63
2023/08/17 06:57:44;;;;;;;26.40;24.10;;;19.70;59.70;;;;;;5048107;28;20125;-62
2023/08/17 07:00:11;;;;;;;24.90;22.90;;;19.80;99.90;;;;;;5040221;28;20098;-62
2023/08/17 07:02:37;;;;;;;26.77;24.42;;;19.80;1.00;;;;;;5040798;28;20052;-62
2023/08/17 07:05:06;;;;;;;23.88;21.83;;;19.90;1.00;;;;;;5040842;28;20124;-63
2023/08/17 07:07:31;;;;;;;25.13;23.00;;;19.90;13.10;;;;;;5041522;28;20037;-62
2023/08/17 07:09:57;;;;;;;25.83;23.23;;;20.00;99.90;;;;;;5048424;28;20120;-62
2023/08/17 07:12:27;;;;;;;25.73;23.52;;;20.10;1.00;;;;;;5050307;28;20045;-62
2023/08/17 07:14:53;;;;;;;27.33;24.77;;;20.30;99.90;;;;;;5047493;28;20142;-62
2023/08/17 07:17:19;;;;;;;24.48;22.50;;;20.30;99.90;;;;;;5049493;28;20045;-63
2023/08/17 07:19:44;;;;;;;25.33;23.13;;;20.40;1.00;;;;;;5049018;28;20552;-62
2023/08/17 07:22:10;;;;;;;24.75;22.73;;;20.20;99.90;;;;;;5049589;28;20037;-62
2023/08/17 07:24:36;;;;;;;23.75;21.75;;;20.40;99.90;;;;;;5049537;28;20076;-62
2023/08/17 07:27:01;;;;;;;22.95;20.90;;;20.60;1.00;;;;;;5049529;28;20551;-63
2023/08/17 07:29:27;;;;;;;24.42;22.48;;;20.50;99.90;;;;;;5050268;28;20499;-62
2023/08/17 07:31:54;;;;;;;25.27;23.25;;;20.50;99.90;;;;;;5049557;28;20098;-63
2023/08/17 07:34:20;;;;;;;25.15;22.95;;;20.60;99.90;;;;;;5045748;28;20514;-63
2023/08/17 07:36:45;;;;;;;27.48;24.83;;;20.50;51.50;;;;;;5050749;28;20079;-62
2023/08/17 07:39:11;;;;;;;27.42;24.83;;;20.40;52.80;;;;;;5048843;28;20124;-62
2023/08/17 07:41:37;;;;;;;30.27;27.67;;;20.50;1.00;;;;;;5046476;28;20041;-63
2023/08/17 07:44:02;;;;;;;25.60;23.60;;;20.40;29.70;;;;;;5049415;28;20165;-62
2023/08/17 07:46:28;;;;;;;27.60;25.30;;;20.60;64.90;;;;;;5050230;28;20041;-63
2023/08/17 07:48:53;;;;;;;27.60;25.10;;;20.50;1.00;;;;;;5049872;28;20099;-62
2023/08/17 07:51:19;;;;;;;26.10;24.02;;;20.60;1.00;;;;;;5049208;28;20116;-62
2023/08/17 07:53:45;;;;;;;26.13;23.90;;;20.60;1.00;;;;;;5047460;28;20495;-62
2023/08/17 07:56:10;;;;;;;26.65;24.48;;;20.70;1.00;;;;;;5049864;28;20037;-62
2023/08/17 07:58:36;;;;;;;24.27;22.30;;;20.80;1.00;;;;;;5048807;28;20037;-62
2023/08/17 08:01:01;;;;;;;24.17;22.08;;;21.00;1.00;;;;;;5048670;28;20402;-62
2023/08/17 08:03:27;;;;;;;25.17;22.80;;;21.20;99.90;;;;;;5050909;28;20098;-62
2023/08/17 08:05:52;;;;;;;24.52;22.42;;;21.00;99.90;;;;;;5051409;28;20033;-62
2023/08/17 08:08:19;;;;;;;26.92;24.48;;;20.90;99.90;;;;;;5045506;28;20041;-63
2023/08/17 08:10:45;;;;;;;26.10;23.35;;;21.00;99.90;;;;;;5046391;28;20036;-62
2023/08/17 08:13:11;;;;;;;24.30;22.20;;;21.00;99.90;;;;;;5049131;28;20070;-63
2023/08/17 08:15:36;;;;;;;23.83;21.85;;;20.90;73.30;;;;;;5049050;28;20093;-62
2023/08/17 08:18:02;;;;;;;26.67;24.35;;;20.90;9.20;;;;;;5049479;28;20045;-64
2023/08/17 08:20:28;;;;;;;24.98;22.77;;;20.80;17.90;;;;;;5048535;28;20490;-64
2023/08/17 08:22:53;;;;;;;26.92;24.63;;;20.80;1.00;;;;;;5048732;28;20076;-64
2023/08/17 08:25:19;;;;;;;26.77;24.33;;;20.80;15.80;;;;;;5048720;28;20063;-64
2023/08/17 08:27:44;;;;;;;25.65;23.55;;;20.70;50.90;;;;;;5042507;28;20045;-64
2023/08/17 08:30:10;;;;;;;26.52;24.00;;;20.80;85.40;;;;;;5048241;28;20037;-64
2023/08/17 08:32:36;;;;;;;28.48;25.95;;;20.80;99.90;;;;;;5048821;28;20041;-64
2023/08/17 08:35:02;;;;;;;26.80;24.58;;;20.80;99.90;;;;;;5046592;28;20051;-64
2023/08/17 08:37:28;;;;;;;25.67;23.50;;;20.90;99.90;;;;;;5049661;28;20029;-64
2023/08/17 08:39:55;;;;;;;25.85;23.45;;;20.90;99.90;;;;;;5049499;28;20041;-64
2023/08/17 08:42:21;;;;;;;25.10;22.80;;;21.00;78.40;;;;;;5052709;28;20051;-64
2023/08/17 08:44:48;;;;;;;24.13;22.02;;;21.10;70.90;;;;;;5053362;28;20538;-64
2023/08/17 08:47:15;;;;;;;23.33;21.13;;;21.20;39.70;;;;;;5051438;28;20037;-64
2023/08/17 08:49:57;;;;;;;23.83;21.77;;;21.30;1.00;;;;;;5049474;28;20041;-64
2023/08/17 08:52:27;;;;;;;21.35;19.60;;;21.40;1.00;;;;;;5050882;28;20210;-64
2023/08/17 08:54:57;;;;;;;22.23;20.23;;;21.80;1.00;;;;;;5049232;28;20062;-64
2023/08/17 08:57:23;;;;;;;23.27;21.00;;;21.80;1.00;;;;;;5052782;28;20045;-64
2023/08/17 08:59:49;;;;;;;19.80;18.30;;;21.80;99.90;;;;;;5048221;28;20065;-64
2023/08/17 09:02:16;;;;;;;21.50;19.70;;;21.80;99.90;;;;;;5049367;28;20358;-64
2023/08/17 09:04:44;;;;;;;19.23;17.55;;;21.70;99.90;;;;;;5045597;28;20094;-64
2023/08/17 09:07:12;;;;;;;21.05;19.05;;;21.70;99.90;;;;;;5030808;28;20039;-64
2023/08/17 09:09:38;;;;;;;22.70;20.80;;;21.70;99.90;;;;;;5048500;28;20033;-64
2023/08/17 09:12:06;;;;;;;22.23;20.00;;;21.80;99.90;;;;;;5053148;28;20052;-64
2023/08/17 09:14:32;;;;;;;22.20;20.20;;;21.90;99.90;;;;;;5051654;28;20108;-64
2023/08/17 09:16:58;;;;;;;21.80;19.88;;;21.80;99.90;;;;;;5053097;28;20563;-64
2023/08/17 09:19:24;;;;;;;21.40;19.38;;;22.40;99.90;;;;;;5055487;28;20037;-64
2023/08/17 09:21:50;;;;;;;19.95;18.35;;;22.50;99.90;;;;;;5052344;28;20033;-64
2023/08/17 09:24:16;;;;;;;23.05;21.15;;;22.60;95.60;;;;;;5051674;28;20033;-64
2023/08/17 09:26:41;;;;;;;23.58;21.45;;;22.50;32.00;;;;;;5050433;28;20064;-64
2023/08/17 09:29:18;;;;;;;24.23;20.52;;;22.50;58.90;;;;;;5050464;28;20095;-65
2023/08/17 09:31:43;;;;;;;22.55;20.70;;;22.60;54.30;;;;;;5052568;28;20064;-64
2023/08/17 09:34:09;;;;;;;21.83;20.13;;;22.80;58.30;;;;;;5052460;28;20079;-65
2023/08/17 09:36:39;;;;;;;24.02;21.88;;;22.70;18.50;;;;;;5051233;28;20053;-65
2023/08/17 09:39:05;;;;;;;24.60;22.50;;;22.40;1.00;;;;;;5048132;28;20090;-65
2023/08/17 09:41:37;;;;;;;24.08;22.13;;;22.30;17.70;;;;;;5045696;28;20040;-65
2023/08/17 09:44:03;;;;;;;23.48;21.48;;;22.50;60.40;;;;;;5045291;28;20118;-65
2023/08/17 09:46:29;;;;;;;23.05;21.13;;;22.60;64.30;;;;;;5051092;28;20033;-65
2023/08/17 09:48:55;;;;;;;23.50;21.58;;;22.70;38.90;;;;;;5042194;28;20076;-64
2023/08/17 09:51:21;;;;;;;22.85;20.95;;;22.60;3.60;;;;;;5048525;28;20044;-65
2023/08/17 09:53:52;;;;;;;22.90;20.92;;;22.60;24.90;;;;;;5049552;28;20056;-65
2023/08/17 09:56:21;;;;;;;22.40;20.50;;;22.60;1.00;;;;;;5053067;28;20474;-64
2023/08/17 09:58:47;;;;;;;23.38;21.27;;;22.50;1.00;;;;;;5047006;28;20140;-65
2023/08/17 10:01:13;;;;;;;22.13;20.38;;;22.50;1.00;;;;;;5043857;28;20135;-65
2023/08/17 10:03:45;;;;;;;21.35;19.55;;;22.40;1.00;;;;;;5048744;28;20130;-65
2023/08/17 10:06:16;;;;;;;23.88;21.70;;;22.30;1.00;;;;;;5045454;28;20041;-65
2023/08/17 10:08:49;;;;;;;23.70;21.70;;;22.20;1.00;;;;;;5048220;28;20120;-65
2023/08/17 10:11:20;;;;;;;18.10;16.52;;;22.30;32.30;;;;;;5050052;28;20086;-65
2023/08/17 10:13:52;;;;;;;20.65;18.65;;;22.20;6.60;;;;;;5043571;28;20048;-64
2023/08/17 10:16:26;;;;;;;24.25;21.67;;;22.20;1.00;;;;;;5045411;28;20167;-65
2023/08/17 10:19:18;;;;;;;22.33;20.50;;;22.30;1.00;;;;;;5046166;28;20044;-64
2023/08/17 10:21:46;;;;;;;20.45;18.70;;;22.40;1.00;;;;;;5052969;28;20051;-64
2023/08/17 10:24:12;;;;;;;21.10;19.40;;;22.40;1.00;;;;;;5048303;28;20487;-65
2023/08/17 10:26:39;;;;;;;21.10;19.30;;;22.50;1.00;;;;;;5042089;28;20052;-65
2023/08/17 10:29:06;;;;;;;19.30;17.60;;;22.50;1.00;;;;;;5046813;28;20068;-66
2023/08/17 10:31:35;;;;;;;16.92;15.50;;;22.60;1.00;;;;;;5048461;28;20132;-65
2023/08/17 10:34:02;;;;;;;17.63;16.13;;;22.70;1.00;;;;;;5049179;28;20487;-64
2023/08/17 10:36:30;;;;;;;18.52;16.80;;;22.70;1.00;;;;;;5048977;28;20108;-64
2023/08/17 10:39:25;;;;;;;16.05;14.88;;;22.70;1.00;;;;;;5046804;28;20041;-64
2023/08/17 10:41:52;;;;;;;16.73;15.30;;;22.80;1.00;;;;;;5048292;28;20052;-64
2023/08/17 10:44:37;;;;;;;17.80;16.40;;;22.80;99.90;;;;;;5049133;28;20037;-64
2023/08/17 10:47:18;;;;;;;17.23;15.80;;;22.70;99.90;;;;;;5050556;28;20044;-65
2023/08/17 10:49:44;;;;;;;16.05;14.85;;;22.70;99.90;;;;;;5052142;28;20072;-65
2023/08/17 10:52:09;;;;;;;17.35;16.05;;;22.70;99.90;;;;;;5047966;28;20072;-65
2023/08/17 10:54:39;;;;;;;18.20;16.63;;;22.80;99.90;;;;;;5049270;28;20047;-65
2023/08/17 10:57:30;;;;;;;15.98;14.68;;;22.60;99.90;;;;;;5044096;28;20051;-64
2023/08/17 11:00:21;;;;;;;16.52;15.10;;;22.80;99.90;;;;;;5049351;28;20048;-64
2023/08/17 11:02:54;;;;;;;17.65;16.15;;;22.90;99.90;;;;;;5046129;28;20036;-64
2023/08/17 11:05:38;;;;;;;18.05;16.50;;;22.90;99.90;;;;;;5048930;28;20052;-64
2023/08/17 11:08:05;;;;;;;17.80;16.20;;;22.90;99.90;;;;;;5049118;28;20118;-64
2023/08/17 11:10:31;;;;;;;18.73;16.92;;;22.90;99.90;;;;;;5049983;28;20090;-64
2023/08/17 11:13:01;;;;;;;21.13;17.92;;;22.90;99.90;;;;;;5050100;28;20033;-64
2023/08/17 11:15:38;;;;;;;19.95;17.85;;;22.90;1.00;;;;;;5049936;28;20037;-64
2023/08/17 11:18:08;;;;;;;20.00;18.30;;;22.90;1.00;;;;;;5048282;28;20159;-64
2023/08/17 11:20:34;;;;;;;20.63;18.70;;;22.80;1.00;;;;;;5049827;28;20132;-64
2023/08/17 11:23:00;;;;;;;20.67;18.50;;;22.80;1.00;;;;;;5053380;28;20468;-64
2023/08/17 11:25:27;;;;;;;20.40;18.70;;;22.70;1.00;;;;;;5049241;28;20122;-64
2023/08/17 11:27:53;;;;;;;19.27;17.63;;;22.90;1.00;;;;;;5050682;28;20036;-64
2023/08/17 11:30:22;;;;;;;20.02;18.13;;;22.80;1.00;;;;;;5050230;28;20033;-64
2023/08/17 11:32:48;;;;;;;22.13;19.90;;;22.60;1.00;;;;;;5050047;28;20051;-64
2023/08/17 11:35:14;;;;;;;20.90;19.02;;;22.50;1.00;;;;;;5049860;28;20049;-64
2023/08/17 11:37:39;;;;;;;22.90;20.77;;;22.40;1.00;;;;;;5049219;28;20386;-64
2023/08/17 11:40:05;;;;;;;21.38;19.15;;;22.40;1.00;;;;;;5049634;28;20033;-64
2023/08/17 11:42:31;;;;;;;22.13;19.90;;;22.40;1.00;;;;;;5048643;28;20074;-64
2023/08/17 11:44:56;;;;;;;22.27;20.42;;;22.40;1.00;;;;;;5047932;28;20453;-64
2023/08/17 11:47:22;;;;;;;21.58;19.67;;;22.40;1.00;;;;;;5031507;28;20044;-64
2023/08/17 11:49:49;;;;;;;20.83;18.23;;;22.40;1.00;;;;;;5049534;28;20120;-64
2023/08/17 11:52:15;;;;;;;19.55;17.95;;;22.40;1.00;;;;;;5049633;28;20115;-64
2023/08/17 11:54:41;;;;;;;19.33;17.63;;;22.40;1.00;;;;;;5049476;28;20048;-64
2023/08/17 11:57:07;;;;;;;18.35;16.55;;;22.40;1.00;;;;;;5048534;28;20045;-63
2023/08/17 11:59:33;;;;;;;20.30;17.88;;;22.40;1.00;;;;;;5049097;28;20068;-63
2023/08/17 12:02:00;;;;;;;19.83;17.95;;;22.40;1.00;;;;;;5048898;28;20048;-63
2023/08/17 12:04:26;;;;;;;19.77;16.77;;;22.40;1.00;;;;;;5049313;28;20448;-62
2023/08/17 12:06:52;;;;;;;17.77;16.38;;;22.50;1.00;;;;;;5049634;28;20131;-62
2023/08/17 12:09:18;;;;;;;18.95;17.30;;;22.60;1.00;;;;;;5053401;28;20491;-63
2023/08/17 12:11:46;;;;;;;18.50;16.17;;;22.60;1.00;;;;;;5049324;28;20044;-63
2023/08/17 12:14:12;;;;;;;19.70;17.80;;;22.90;1.00;;;;;;5049283;28;20072;-63
2023/08/17 12:16:50;;;;;;;19.45;17.83;;;22.60;1.00;;;;;;5049855;28;20497;-63
2023/08/17 12:19:16;;;;;;;19.70;17.90;;;22.40;1.00;;;;;;5045873;28;20563;-64
2023/08/17 12:21:45;;;;;;;21.90;18.58;;;22.40;1.00;;;;;;5048786;28;20124;-63
2023/08/17 12:24:14;;;;;;;19.25;17.58;;;22.40;1.00;;;;;;5051002;28;20041;-62
2023/08/17 12:26:46;;;;;;;19.05;16.90;;;22.40;1.00;;;;;;5047693;28;20129;-62